sensor_id;sensor_type;location;lat;lon;timestamp;P1;durP1;ratioP1;P2;durP2;ratioP2
60076;SDS011;45950;45.208;20.374;2023-05-06T00:01:05;11.95;;;8.80;;
60076;SDS011;45950;45.208;20.374;2023-05-06T00:03:36;12.82;;;9.73;;
60076;SDS011;45950;45.208;20.374;2023-05-06T00:06:04;12.63;;;8.98;;
60076;SDS011;45950;45.208;20.374;2023-05-06T00:08:33;12.70;;;8.88;;
60076;SDS011;45950;45.208;20.374;2023-05-06T00:10:59;14.32;;;10.23;;
60076;SDS011;45950;45.208;20.374;2023-05-06T00:13:26;16.35;;;11.65;;
60076;SDS011;45950;45.208;20.374;2023-05-06T00:15:52;15.50;;;11.25;;
60076;SDS011;45950;45.208;20.374;2023-05-06T00:18:19;15.20;;;9.82;;
60076;SDS011;45950;45.208;20.374;2023-05-06T00:20:46;13.57;;;10.02;;
60076;SDS011;45950;45.208;20.374;2023-05-06T00:23:14;15.98;;;10.60;;
60076;SDS011;45950;45.208;20.374;2023-05-06T00:25:41;14.48;;;9.82;;
60076;SDS011;45950;45.208;20.374;2023-05-06T00:28:08;12.63;;;10.00;;
60076;SDS011;45950;45.208;20.374;2023-05-06T00:30:34;14.32;;;10.00;;
60076;SDS011;45950;45.208;20.374;2023-05-06T00:33:01;15.05;;;10.02;;
60076;SDS011;45950;45.208;20.374;2023-05-06T00:35:27;12.30;;;8.43;;
60076;SDS011;45950;45.208;20.374;2023-05-06T00:38:05;11.77;;;9.57;;
60076;SDS011;45950;45.208;20.374;2023-05-06T00:40:33;13.63;;;9.40;;
60076;SDS011;45950;45.208;20.374;2023-05-06T00:43:00;13.65;;;9.88;;
60076;SDS011;45950;45.208;20.374;2023-05-06T00:48:15;13.27;;;9.65;;
60076;SDS011;45950;45.208;20.374;2023-05-06T00:50:41;12.32;;;9.82;;
60076;SDS011;45950;45.208;20.374;2023-05-06T00:53:11;12.45;;;10.25;;
60076;SDS011;45950;45.208;20.374;2023-05-06T00:55:39;11.57;;;9.15;;
60076;SDS011;45950;45.208;20.374;2023-05-06T00:58:05;12.13;;;9.65;;
60076;SDS011;45950;45.208;20.374;2023-05-06T01:00:32;12.02;;;9.95;;
60076;SDS011;45950;45.208;20.374;2023-05-06T01:02:59;15.82;;;11.07;;
60076;SDS011;45950;45.208;20.374;2023-05-06T01:05:28;11.77;;;8.93;;
60076;SDS011;45950;45.208;20.374;2023-05-06T01:07:57;13.02;;;9.80;;
60076;SDS011;45950;45.208;20.374;2023-05-06T01:10:26;11.90;;;9.30;;
60076;SDS011;45950;45.208;20.374;2023-05-06T01:13:00;14.95;;;10.30;;
60076;SDS011;45950;45.208;20.374;2023-05-06T01:15:31;12.00;;;8.93;;
60076;SDS011;45950;45.208;20.374;2023-05-06T01:18:07;13.15;;;9.23;;
60076;SDS011;45950;45.208;20.374;2023-05-06T01:20:35;11.98;;;9.55;;
60076;SDS011;45950;45.208;20.374;2023-05-06T01:23:07;14.63;;;9.57;;
60076;SDS011;45950;45.208;20.374;2023-05-06T01:25:51;13.07;;;8.82;;
60076;SDS011;45950;45.208;20.374;2023-05-06T01:28:17;10.95;;;8.63;;
60076;SDS011;45950;45.208;20.374;2023-05-06T01:30:50;11.77;;;9.07;;
60076;SDS011;45950;45.208;20.374;2023-05-06T01:33:21;12.57;;;9.73;;
60076;SDS011;45950;45.208;20.374;2023-05-06T01:35:52;13.35;;;9.45;;
60076;SDS011;45950;45.208;20.374;2023-05-06T01:38:24;14.15;;;10.10;;
60076;SDS011;45950;45.208;20.374;2023-05-06T01:41:02;12.63;;;9.65;;
60076;SDS011;45950;45.208;20.374;2023-05-06T01:43:29;13.23;;;10.02;;
60076;SDS011;45950;45.208;20.374;2023-05-06T01:45:57;12.88;;;9.43;;
60076;SDS011;45950;45.208;20.374;2023-05-06T01:48:34;11.75;;;8.90;;
60076;SDS011;45950;45.208;20.374;2023-05-06T01:51:02;13.40;;;9.93;;
60076;SDS011;45950;45.208;20.374;2023-05-06T01:53:30;15.82;;;10.88;;
60076;SDS011;45950;45.208;20.374;2023-05-06T01:55:57;11.68;;;9.20;;
60076;SDS011;45950;45.208;20.374;2023-05-06T01:58:23;12.88;;;8.57;;
60076;SDS011;45950;45.208;20.374;2023-05-06T02:00:50;11.18;;;9.52;;
60076;SDS011;45950;45.208;20.374;2023-05-06T02:03:16;14.90;;;9.35;;
60076;SDS011;45950;45.208;20.374;2023-05-06T02:05:43;13.50;;;9.80;;
60076;SDS011;45950;45.208;20.374;2023-05-06T02:08:09;14.35;;;10.82;;
60076;SDS011;45950;45.208;20.374;2023-05-06T02:10:37;15.85;;;10.15;;
60076;SDS011;45950;45.208;20.374;2023-05-06T02:13:04;15.82;;;12.45;;
60076;SDS011;45950;45.208;20.374;2023-05-06T02:15:31;15.05;;;11.05;;
60076;SDS011;45950;45.208;20.374;2023-05-06T02:17:57;15.15;;;11.60;;
60076;SDS011;45950;45.208;20.374;2023-05-06T02:20:25;16.92;;;12.73;;
60076;SDS011;45950;45.208;20.374;2023-05-06T02:22:53;15.45;;;11.35;;
60076;SDS011;45950;45.208;20.374;2023-05-06T02:27:48;18.48;;;12.45;;
60076;SDS011;45950;45.208;20.374;2023-05-06T02:30:14;15.93;;;11.70;;
60076;SDS011;45950;45.208;20.374;2023-05-06T02:32:41;15.73;;;12.35;;
60076;SDS011;45950;45.208;20.374;2023-05-06T02:35:08;15.75;;;11.70;;
60076;SDS011;45950;45.208;20.374;2023-05-06T02:37:34;15.00;;;11.35;;
60076;SDS011;45950;45.208;20.374;2023-05-06T02:40:01;13.98;;;11.55;;
60076;SDS011;45950;45.208;20.374;2023-05-06T02:42:30;14.68;;;11.60;;
60076;SDS011;45950;45.208;20.374;2023-05-06T02:44:58;16.05;;;12.05;;
60076;SDS011;45950;45.208;20.374;2023-05-06T02:47:25;24.23;;;12.65;;
60076;SDS011;45950;45.208;20.374;2023-05-06T02:49:51;14.82;;;11.02;;
60076;SDS011;45950;45.208;20.374;2023-05-06T02:52:18;16.40;;;12.23;;
60076;SDS011;45950;45.208;20.374;2023-05-06T02:54:44;16.30;;;12.30;;
60076;SDS011;45950;45.208;20.374;2023-05-06T02:57:11;19.63;;;12.52;;
60076;SDS011;45950;45.208;20.374;2023-05-06T02:59:37;19.10;;;12.43;;
60076;SDS011;45950;45.208;20.374;2023-05-06T03:02:06;17.45;;;12.40;;
60076;SDS011;45950;45.208;20.374;2023-05-06T03:04:32;15.88;;;12.60;;
60076;SDS011;45950;45.208;20.374;2023-05-06T03:06:59;21.83;;;13.77;;
60076;SDS011;45950;45.208;20.374;2023-05-06T03:09:25;23.88;;;15.45;;
60076;SDS011;45950;45.208;20.374;2023-05-06T03:11:52;21.70;;;14.77;;
60076;SDS011;45950;45.208;20.374;2023-05-06T03:14:19;19.88;;;14.38;;
60076;SDS011;45950;45.208;20.374;2023-05-06T03:16:45;19.80;;;14.70;;
60076;SDS011;45950;45.208;20.374;2023-05-06T03:19:13;22.15;;;14.73;;
60076;SDS011;45950;45.208;20.374;2023-05-06T03:21:40;19.80;;;14.20;;
60076;SDS011;45950;45.208;20.374;2023-05-06T03:24:06;18.95;;;14.82;;
60076;SDS011;45950;45.208;20.374;2023-05-06T03:26:33;20.58;;;14.27;;
60076;SDS011;45950;45.208;20.374;2023-05-06T03:28:59;19.27;;;14.77;;
60076;SDS011;45950;45.208;20.374;2023-05-06T03:31:26;20.65;;;14.90;;
60076;SDS011;45950;45.208;20.374;2023-05-06T03:33:52;19.50;;;14.20;;
60076;SDS011;45950;45.208;20.374;2023-05-06T03:36:20;21.95;;;14.82;;
60076;SDS011;45950;45.208;20.374;2023-05-06T03:38:49;19.00;;;13.88;;
60076;SDS011;45950;45.208;20.374;2023-05-06T03:41:16;20.45;;;13.85;;
60076;SDS011;45950;45.208;20.374;2023-05-06T03:43:43;21.48;;;15.65;;
60076;SDS011;45950;45.208;20.374;2023-05-06T03:46:09;20.77;;;15.35;;
60076;SDS011;45950;45.208;20.374;2023-05-06T03:48:38;18.40;;;14.23;;
60076;SDS011;45950;45.208;20.374;2023-05-06T03:51:05;19.80;;;14.20;;
60076;SDS011;45950;45.208;20.374;2023-05-06T03:53:32;19.48;;;14.77;;
60076;SDS011;45950;45.208;20.374;2023-05-06T03:55:59;18.90;;;14.40;;
60076;SDS011;45950;45.208;20.374;2023-05-06T03:58:26;22.48;;;16.77;;
60076;SDS011;45950;45.208;20.374;2023-05-06T04:00:52;20.83;;;16.35;;
60076;SDS011;45950;45.208;20.374;2023-05-06T04:03:19;23.15;;;17.08;;
60076;SDS011;45950;45.208;20.374;2023-05-06T04:05:46;21.20;;;15.30;;
60076;SDS011;45950;45.208;20.374;2023-05-06T04:08:13;22.10;;;16.10;;
60076;SDS011;45950;45.208;20.374;2023-05-06T04:13:29;22.00;;;16.08;;
60076;SDS011;45950;45.208;20.374;2023-05-06T04:15:55;17.92;;;13.68;;
60076;SDS011;45950;45.208;20.374;2023-05-06T04:18:22;20.90;;;14.52;;
60076;SDS011;45950;45.208;20.374;2023-05-06T04:20:49;18.10;;;14.23;;
60076;SDS011;45950;45.208;20.374;2023-05-06T04:23:15;21.95;;;16.60;;
60076;SDS011;45950;45.208;20.374;2023-05-06T04:25:44;20.13;;;15.70;;
60076;SDS011;45950;45.208;20.374;2023-05-06T04:28:12;20.00;;;15.10;;
60076;SDS011;45950;45.208;20.374;2023-05-06T04:30:41;19.33;;;14.55;;
60076;SDS011;45950;45.208;20.374;2023-05-06T04:33:08;17.55;;;13.40;;
60076;SDS011;45950;45.208;20.374;2023-05-06T04:35:35;16.98;;;14.95;;
60076;SDS011;45950;45.208;20.374;2023-05-06T04:38:01;19.58;;;13.85;;
60076;SDS011;45950;45.208;20.374;2023-05-06T04:40:34;24.77;;;16.92;;
60076;SDS011;45950;45.208;20.374;2023-05-06T04:43:04;19.67;;;15.27;;
60076;SDS011;45950;45.208;20.374;2023-05-06T04:45:31;19.77;;;14.88;;
60076;SDS011;45950;45.208;20.374;2023-05-06T04:48:00;21.23;;;14.93;;
60076;SDS011;45950;45.208;20.374;2023-05-06T04:50:26;22.02;;;15.55;;
60076;SDS011;45950;45.208;20.374;2023-05-06T04:52:53;19.67;;;14.73;;
60076;SDS011;45950;45.208;20.374;2023-05-06T04:55:19;22.55;;;17.27;;
60076;SDS011;45950;45.208;20.374;2023-05-06T04:57:46;22.35;;;18.02;;
60076;SDS011;45950;45.208;20.374;2023-05-06T05:00:12;20.48;;;16.17;;
60076;SDS011;45950;45.208;20.374;2023-05-06T05:02:40;24.23;;;17.50;;
60076;SDS011;45950;45.208;20.374;2023-05-06T05:05:09;21.50;;;17.17;;
60076;SDS011;45950;45.208;20.374;2023-05-06T05:07:47;22.15;;;16.40;;
60076;SDS011;45950;45.208;20.374;2023-05-06T05:10:13;21.73;;;18.40;;
60076;SDS011;45950;45.208;20.374;2023-05-06T05:12:40;21.38;;;16.15;;
60076;SDS011;45950;45.208;20.374;2023-05-06T05:15:07;22.80;;;17.13;;
60076;SDS011;45950;45.208;20.374;2023-05-06T05:17:33;25.02;;;18.63;;
60076;SDS011;45950;45.208;20.374;2023-05-06T05:20:00;25.08;;;18.63;;
60076;SDS011;45950;45.208;20.374;2023-05-06T05:22:28;26.20;;;17.67;;
60076;SDS011;45950;45.208;20.374;2023-05-06T05:24:55;28.38;;;19.70;;
60076;SDS011;45950;45.208;20.374;2023-05-06T05:27:21;23.40;;;19.10;;
60076;SDS011;45950;45.208;20.374;2023-05-06T05:29:48;22.17;;;17.27;;
60076;SDS011;45950;45.208;20.374;2023-05-06T05:32:15;23.75;;;17.42;;
60076;SDS011;45950;45.208;20.374;2023-05-06T05:34:41;23.35;;;17.38;;
60076;SDS011;45950;45.208;20.374;2023-05-06T05:37:08;20.65;;;15.80;;
60076;SDS011;45950;45.208;20.374;2023-05-06T05:39:36;22.02;;;17.30;;
60076;SDS011;45950;45.208;20.374;2023-05-06T05:42:03;25.70;;;19.27;;
60076;SDS011;45950;45.208;20.374;2023-05-06T05:44:30;25.15;;;17.20;;
60076;SDS011;45950;45.208;20.374;2023-05-06T05:46:56;26.75;;;18.77;;
60076;SDS011;45950;45.208;20.374;2023-05-06T05:49:23;24.42;;;17.05;;
60076;SDS011;45950;45.208;20.374;2023-05-06T05:51:49;21.25;;;16.95;;
60076;SDS011;45950;45.208;20.374;2023-05-06T05:54:18;26.30;;;19.02;;
60076;SDS011;45950;45.208;20.374;2023-05-06T05:56:46;25.92;;;18.83;;
60076;SDS011;45950;45.208;20.374;2023-05-06T05:59:12;25.10;;;18.67;;
60076;SDS011;45950;45.208;20.374;2023-05-06T06:01:39;22.15;;;16.33;;
60076;SDS011;45950;45.208;20.374;2023-05-06T06:04:06;20.80;;;16.98;;
60076;SDS011;45950;45.208;20.374;2023-05-06T06:06:32;31.92;;;21.65;;
60076;SDS011;45950;45.208;20.374;2023-05-06T06:08:59;22.17;;;16.90;;
60076;SDS011;45950;45.208;20.374;2023-05-06T06:11:25;24.35;;;18.10;;
60076;SDS011;45950;45.208;20.374;2023-05-06T06:13:54;27.40;;;20.58;;
60076;SDS011;45950;45.208;20.374;2023-05-06T06:16:20;28.75;;;20.25;;
60076;SDS011;45950;45.208;20.374;2023-05-06T06:18:47;23.55;;;16.40;;
60076;SDS011;45950;45.208;20.374;2023-05-06T06:21:14;19.08;;;15.43;;
60076;SDS011;45950;45.208;20.374;2023-05-06T06:23:40;26.02;;;18.52;;
60076;SDS011;45950;45.208;20.374;2023-05-06T06:26:07;26.05;;;19.02;;
60076;SDS011;45950;45.208;20.374;2023-05-06T06:28:33;21.17;;;16.75;;
60076;SDS011;45950;45.208;20.374;2023-05-06T06:31:01;20.25;;;15.20;;
60076;SDS011;45950;45.208;20.374;2023-05-06T06:33:28;23.17;;;16.25;;
60076;SDS011;45950;45.208;20.374;2023-05-06T06:35:56;18.98;;;15.70;;
60076;SDS011;45950;45.208;20.374;2023-05-06T06:38:22;19.30;;;15.02;;
60076;SDS011;45950;45.208;20.374;2023-05-06T06:40:49;20.38;;;15.18;;
60076;SDS011;45950;45.208;20.374;2023-05-06T06:43:16;18.08;;;14.63;;
60076;SDS011;45950;45.208;20.374;2023-05-06T06:45:45;20.10;;;16.02;;
60076;SDS011;45950;45.208;20.374;2023-05-06T06:48:13;18.45;;;14.35;;
60076;SDS011;45950;45.208;20.374;2023-05-06T06:50:40;18.88;;;14.50;;
60076;SDS011;45950;45.208;20.374;2023-05-06T06:53:07;21.15;;;16.60;;
60076;SDS011;45950;45.208;20.374;2023-05-06T06:55:35;19.35;;;14.77;;
60076;SDS011;45950;45.208;20.374;2023-05-06T06:58:01;17.95;;;13.98;;
60076;SDS011;45950;45.208;20.374;2023-05-06T07:00:28;15.65;;;13.52;;
60076;SDS011;45950;45.208;20.374;2023-05-06T07:02:54;15.98;;;12.55;;
60076;SDS011;45950;45.208;20.374;2023-05-06T07:05:24;15.98;;;13.05;;
60076;SDS011;45950;45.208;20.374;2023-05-06T07:07:58;17.67;;;13.95;;
60076;SDS011;45950;45.208;20.374;2023-05-06T07:10:25;15.27;;;12.27;;
60076;SDS011;45950;45.208;20.374;2023-05-06T07:12:51;17.02;;;12.38;;
60076;SDS011;45950;45.208;20.374;2023-05-06T07:15:18;15.05;;;11.63;;
60076;SDS011;45950;45.208;20.374;2023-05-06T07:17:44;14.20;;;11.25;;
60076;SDS011;45950;45.208;20.374;2023-05-06T07:20:11;15.70;;;12.43;;
60076;SDS011;45950;45.208;20.374;2023-05-06T07:22:39;13.68;;;11.98;;
60076;SDS011;45950;45.208;20.374;2023-05-06T07:25:06;13.25;;;11.15;;
60076;SDS011;45950;45.208;20.374;2023-05-06T07:27:33;14.48;;;11.48;;
60076;SDS011;45950;45.208;20.374;2023-05-06T07:29:59;13.73;;;11.63;;
60076;SDS011;45950;45.208;20.374;2023-05-06T07:32:26;14.80;;;12.13;;
60076;SDS011;45950;45.208;20.374;2023-05-06T07:34:52;13.77;;;11.63;;
60076;SDS011;45950;45.208;20.374;2023-05-06T07:37:19;13.60;;;11.40;;
60076;SDS011;45950;45.208;20.374;2023-05-06T07:39:47;14.85;;;12.63;;
60076;SDS011;45950;45.208;20.374;2023-05-06T07:42:14;15.07;;;11.98;;
60076;SDS011;45950;45.208;20.374;2023-05-06T07:44:40;14.30;;;12.20;;
60076;SDS011;45950;45.208;20.374;2023-05-06T07:47:07;13.02;;;10.32;;
60076;SDS011;45950;45.208;20.374;2023-05-06T07:49:33;12.90;;;10.90;;
60076;SDS011;45950;45.208;20.374;2023-05-06T07:52:00;12.52;;;10.30;;
60076;SDS011;45950;45.208;20.374;2023-05-06T07:54:27;13.68;;;10.20;;
60076;SDS011;45950;45.208;20.374;2023-05-06T07:56:57;10.70;;;9.38;;
60076;SDS011;45950;45.208;20.374;2023-05-06T07:59:23;12.75;;;9.23;;
60076;SDS011;45950;45.208;20.374;2023-05-06T08:01:50;13.18;;;11.02;;
60076;SDS011;45950;45.208;20.374;2023-05-06T08:04:16;13.95;;;11.45;;
60076;SDS011;45950;45.208;20.374;2023-05-06T08:06:43;13.73;;;10.30;;
60076;SDS011;45950;45.208;20.374;2023-05-06T08:09:09;12.25;;;9.43;;
60076;SDS011;45950;45.208;20.374;2023-05-06T08:11:36;10.90;;;8.80;;
60076;SDS011;45950;45.208;20.374;2023-05-06T08:14:04;12.80;;;8.98;;
60076;SDS011;45950;45.208;20.374;2023-05-06T08:16:31;11.77;;;9.77;;
60076;SDS011;45950;45.208;20.374;2023-05-06T08:18:57;12.73;;;9.48;;
60076;SDS011;45950;45.208;20.374;2023-05-06T08:21:24;11.52;;;9.23;;
60076;SDS011;45950;45.208;20.374;2023-05-06T08:23:50;10.65;;;8.90;;
60076;SDS011;45950;45.208;20.374;2023-05-06T08:26:19;12.00;;;9.60;;
60076;SDS011;45950;45.208;20.374;2023-05-06T08:28:45;10.68;;;8.95;;
60076;SDS011;45950;45.208;20.374;2023-05-06T08:31:13;9.75;;;7.97;;
60076;SDS011;45950;45.208;20.374;2023-05-06T08:33:42;11.23;;;8.50;;
60076;SDS011;45950;45.208;20.374;2023-05-06T08:36:08;10.40;;;9.35;;
60076;SDS011;45950;45.208;20.374;2023-05-06T08:38:35;9.20;;;7.07;;
60076;SDS011;45950;45.208;20.374;2023-05-06T08:41:02;11.68;;;8.60;;
60076;SDS011;45950;45.208;20.374;2023-05-06T08:43:33;10.15;;;9.15;;
60076;SDS011;45950;45.208;20.374;2023-05-06T08:46:00;12.05;;;8.50;;
60076;SDS011;45950;45.208;20.374;2023-05-06T08:48:29;10.15;;;8.15;;
60076;SDS011;45950;45.208;20.374;2023-05-06T08:50:55;11.13;;;8.15;;
60076;SDS011;45950;45.208;20.374;2023-05-06T08:53:23;8.05;;;6.85;;
60076;SDS011;45950;45.208;20.374;2023-05-06T08:55:49;10.15;;;7.50;;
60076;SDS011;45950;45.208;20.374;2023-05-06T08:58:16;8.43;;;7.50;;
60076;SDS011;45950;45.208;20.374;2023-05-06T09:00:44;10.18;;;6.82;;
60076;SDS011;45950;45.208;20.374;2023-05-06T09:03:11;7.85;;;6.82;;
60076;SDS011;45950;45.208;20.374;2023-05-06T09:05:39;6.82;;;6.03;;
60076;SDS011;45950;45.208;20.374;2023-05-06T09:08:05;7.38;;;6.38;;
60076;SDS011;45950;45.208;20.374;2023-05-06T09:10:36;6.28;;;5.68;;
60076;SDS011;45950;45.208;20.374;2023-05-06T09:13:03;6.60;;;5.57;;
60076;SDS011;45950;45.208;20.374;2023-05-06T09:15:37;7.72;;;6.32;;
60076;SDS011;45950;45.208;20.374;2023-05-06T09:18:04;6.43;;;5.65;;
60076;SDS011;45950;45.208;20.374;2023-05-06T09:20:31;6.78;;;6.07;;
60076;SDS011;45950;45.208;20.374;2023-05-06T09:23:00;7.85;;;5.50;;
60076;SDS011;45950;45.208;20.374;2023-05-06T09:25:32;7.32;;;5.78;;
60076;SDS011;45950;45.208;20.374;2023-05-06T09:28:05;6.97;;;5.43;;
60076;SDS011;45950;45.208;20.374;2023-05-06T09:30:31;6.25;;;5.32;;
60076;SDS011;45950;45.208;20.374;2023-05-06T09:32:58;6.35;;;5.70;;
60076;SDS011;45950;45.208;20.374;2023-05-06T09:35:26;9.52;;;5.57;;
60076;SDS011;45950;45.208;20.374;2023-05-06T09:37:54;6.97;;;6.15;;
60076;SDS011;45950;45.208;20.374;2023-05-06T09:40:23;7.13;;;6.30;;
60076;SDS011;45950;45.208;20.374;2023-05-06T09:42:50;8.60;;;5.85;;
60076;SDS011;45950;45.208;20.374;2023-05-06T09:45:19;8.20;;;6.35;;
60076;SDS011;45950;45.208;20.374;2023-05-06T09:47:48;7.18;;;5.68;;
60076;SDS011;45950;45.208;20.374;2023-05-06T09:50:16;7.50;;;5.72;;
60076;SDS011;45950;45.208;20.374;2023-05-06T09:52:44;7.72;;;5.57;;
60076;SDS011;45950;45.208;20.374;2023-05-06T09:55:11;7.65;;;5.85;;
60076;SDS011;45950;45.208;20.374;2023-05-06T09:57:39;6.55;;;5.72;;
60076;SDS011;45950;45.208;20.374;2023-05-06T10:00:07;6.60;;;5.80;;
60076;SDS011;45950;45.208;20.374;2023-05-06T10:02:36;6.82;;;5.90;;
60076;SDS011;45950;45.208;20.374;2023-05-06T10:05:03;6.22;;;5.63;;
60076;SDS011;45950;45.208;20.374;2023-05-06T10:07:30;8.73;;;5.32;;
60076;SDS011;45950;45.208;20.374;2023-05-06T10:09:57;6.88;;;5.45;;
60076;SDS011;45950;45.208;20.374;2023-05-06T10:12:25;7.82;;;6.32;;
60076;SDS011;45950;45.208;20.374;2023-05-06T10:14:53;8.25;;;6.35;;
60076;SDS011;45950;45.208;20.374;2023-05-06T10:17:21;5.32;;;4.75;;
60076;SDS011;45950;45.208;20.374;2023-05-06T10:19:49;8.25;;;5.63;;
60076;SDS011;45950;45.208;20.374;2023-05-06T10:22:18;7.88;;;6.95;;
60076;SDS011;45950;45.208;20.374;2023-05-06T10:24:49;6.78;;;5.38;;
60076;SDS011;45950;45.208;20.374;2023-05-06T10:27:17;5.93;;;5.32;;
60076;SDS011;45950;45.208;20.374;2023-05-06T10:29:47;6.95;;;5.43;;
60076;SDS011;45950;45.208;20.374;2023-05-06T10:32:15;8.48;;;5.00;;
60076;SDS011;45950;45.208;20.374;2023-05-06T10:34:46;7.18;;;4.97;;
60076;SDS011;45950;45.208;20.374;2023-05-06T10:37:16;5.90;;;4.57;;
60076;SDS011;45950;45.208;20.374;2023-05-06T10:39:43;6.45;;;5.15;;
60076;SDS011;45950;45.208;20.374;2023-05-06T10:42:10;9.25;;;5.30;;
60076;SDS011;45950;45.208;20.374;2023-05-06T10:47:20;5.03;;;4.53;;
60076;SDS011;45950;45.208;20.374;2023-05-06T10:49:56;5.65;;;5.05;;
60076;SDS011;45950;45.208;20.374;2023-05-06T10:52:42;5.75;;;4.45;;
60076;SDS011;45950;45.208;20.374;2023-05-06T10:55:23;6.88;;;4.32;;
60076;SDS011;45950;45.208;20.374;2023-05-06T10:57:50;8.55;;;4.57;;
60076;SDS011;45950;45.208;20.374;2023-05-06T11:00:19;4.88;;;4.38;;
60076;SDS011;45950;45.208;20.374;2023-05-06T11:02:50;5.43;;;4.35;;
60076;SDS011;45950;45.208;20.374;2023-05-06T11:07:48;4.40;;;3.88;;
60076;SDS011;45950;45.208;20.374;2023-05-06T11:10:14;5.57;;;4.45;;
60076;SDS011;45950;45.208;20.374;2023-05-06T11:12:56;5.25;;;4.50;;
60076;SDS011;45950;45.208;20.374;2023-05-06T11:15:23;5.90;;;4.00;;
60076;SDS011;45950;45.208;20.374;2023-05-06T11:17:52;5.03;;;4.50;;
60076;SDS011;45950;45.208;20.374;2023-05-06T11:20:20;4.13;;;3.65;;
60076;SDS011;45950;45.208;20.374;2023-05-06T11:22:47;3.97;;;3.58;;
60076;SDS011;45950;45.208;20.374;2023-05-06T11:27:58;18.05;;;4.80;;
60076;SDS011;45950;45.208;20.374;2023-05-06T11:30:24;6.78;;;4.25;;
60076;SDS011;45950;45.208;20.374;2023-05-06T11:32:52;4.50;;;3.70;;
60076;SDS011;45950;45.208;20.374;2023-05-06T11:35:20;4.35;;;3.50;;
60076;SDS011;45950;45.208;20.374;2023-05-06T11:37:47;7.43;;;3.95;;
60076;SDS011;45950;45.208;20.374;2023-05-06T11:40:13;4.85;;;3.53;;
60076;SDS011;45950;45.208;20.374;2023-05-06T11:42:40;4.43;;;3.97;;
60076;SDS011;45950;45.208;20.374;2023-05-06T11:45:12;6.03;;;3.75;;
60076;SDS011;45950;45.208;20.374;2023-05-06T11:47:41;4.97;;;3.97;;
60076;SDS011;45950;45.208;20.374;2023-05-06T11:50:10;4.03;;;2.97;;
60076;SDS011;45950;45.208;20.374;2023-05-06T11:52:36;4.45;;;3.20;;
60076;SDS011;45950;45.208;20.374;2023-05-06T11:55:05;5.05;;;3.60;;
60076;SDS011;45950;45.208;20.374;2023-05-06T11:57:34;5.57;;;2.90;;
60076;SDS011;45950;45.208;20.374;2023-05-06T12:00:00;4.53;;;3.13;;
60076;SDS011;45950;45.208;20.374;2023-05-06T12:02:28;3.80;;;3.15;;
60076;SDS011;45950;45.208;20.374;2023-05-06T12:04:55;3.40;;;3.10;;
60076;SDS011;45950;45.208;20.374;2023-05-06T12:07:23;3.42;;;3.00;;
60076;SDS011;45950;45.208;20.374;2023-05-06T12:09:50;3.72;;;2.85;;
60076;SDS011;45950;45.208;20.374;2023-05-06T12:12:17;4.72;;;3.42;;
60076;SDS011;45950;45.208;20.374;2023-05-06T12:14:46;3.33;;;2.97;;
60076;SDS011;45950;45.208;20.374;2023-05-06T12:17:12;4.38;;;2.92;;
60076;SDS011;45950;45.208;20.374;2023-05-06T12:19:40;3.72;;;2.88;;
60076;SDS011;45950;45.208;20.374;2023-05-06T12:22:13;4.22;;;2.85;;
60076;SDS011;45950;45.208;20.374;2023-05-06T12:24:41;3.58;;;2.90;;
60076;SDS011;45950;45.208;20.374;2023-05-06T12:27:08;3.38;;;2.85;;
60076;SDS011;45950;45.208;20.374;2023-05-06T12:29:34;5.32;;;2.80;;
60076;SDS011;45950;45.208;20.374;2023-05-06T12:32:07;3.85;;;2.50;;
60076;SDS011;45950;45.208;20.374;2023-05-06T12:34:37;4.57;;;3.30;;
60076;SDS011;45950;45.208;20.374;2023-05-06T12:37:04;3.85;;;3.10;;
60076;SDS011;45950;45.208;20.374;2023-05-06T12:39:35;3.25;;;2.70;;
60076;SDS011;45950;45.208;20.374;2023-05-06T12:42:03;4.55;;;3.28;;
60076;SDS011;45950;45.208;20.374;2023-05-06T12:44:30;4.65;;;2.85;;
60076;SDS011;45950;45.208;20.374;2023-05-06T12:46:58;3.17;;;2.70;;
60076;SDS011;45950;45.208;20.374;2023-05-06T12:49:24;3.10;;;2.55;;
60076;SDS011;45950;45.208;20.374;2023-05-06T12:52:04;4.53;;;2.80;;
60076;SDS011;45950;45.208;20.374;2023-05-06T12:54:31;3.67;;;2.38;;
60076;SDS011;45950;45.208;20.374;2023-05-06T12:56:57;4.13;;;2.70;;
60076;SDS011;45950;45.208;20.374;2023-05-06T12:59:25;3.60;;;3.05;;
60076;SDS011;45950;45.208;20.374;2023-05-06T13:01:52;2.90;;;2.55;;
60076;SDS011;45950;45.208;20.374;2023-05-06T13:04:19;5.57;;;3.20;;
60076;SDS011;45950;45.208;20.374;2023-05-06T13:06:46;3.78;;;2.55;;
60076;SDS011;45950;45.208;20.374;2023-05-06T13:09:12;3.92;;;2.53;;
60076;SDS011;45950;45.208;20.374;2023-05-06T13:11:39;3.38;;;2.60;;
60076;SDS011;45950;45.208;20.374;2023-05-06T13:14:06;4.35;;;2.58;;
60076;SDS011;45950;45.208;20.374;2023-05-06T13:16:34;5.22;;;2.63;;
60076;SDS011;45950;45.208;20.374;2023-05-06T13:19:01;3.40;;;2.30;;
60076;SDS011;45950;45.208;20.374;2023-05-06T13:21:28;3.65;;;2.40;;
60076;SDS011;45950;45.208;20.374;2023-05-06T13:23:56;3.92;;;2.90;;
60076;SDS011;45950;45.208;20.374;2023-05-06T13:26:22;3.63;;;2.60;;
60076;SDS011;45950;45.208;20.374;2023-05-06T13:28:49;5.10;;;2.90;;
60076;SDS011;45950;45.208;20.374;2023-05-06T13:31:15;3.90;;;2.80;;
60076;SDS011;45950;45.208;20.374;2023-05-06T13:33:43;4.40;;;2.97;;
60076;SDS011;45950;45.208;20.374;2023-05-06T13:36:10;6.57;;;4.03;;
60076;SDS011;45950;45.208;20.374;2023-05-06T13:38:36;3.42;;;3.03;;
60076;SDS011;45950;45.208;20.374;2023-05-06T13:41:04;4.25;;;3.00;;
60076;SDS011;45950;45.208;20.374;2023-05-06T13:43:31;4.97;;;3.60;;
60076;SDS011;45950;45.208;20.374;2023-05-06T13:45:57;4.50;;;3.17;;
60076;SDS011;45950;45.208;20.374;2023-05-06T13:48:24;4.68;;;3.40;;
60076;SDS011;45950;45.208;20.374;2023-05-06T13:50:52;3.75;;;3.25;;
60076;SDS011;45950;45.208;20.374;2023-05-06T13:53:18;5.13;;;3.22;;
60076;SDS011;45950;45.208;20.374;2023-05-06T13:55:45;3.70;;;3.38;;
60076;SDS011;45950;45.208;20.374;2023-05-06T13:58:12;7.40;;;3.42;;
60076;SDS011;45950;45.208;20.374;2023-05-06T14:00:38;5.97;;;4.10;;
60076;SDS011;45950;45.208;20.374;2023-05-06T14:03:05;4.07;;;3.58;;
60076;SDS011;45950;45.208;20.374;2023-05-06T14:05:31;5.03;;;3.00;;
60076;SDS011;45950;45.208;20.374;2023-05-06T14:07:59;4.63;;;3.58;;
60076;SDS011;45950;45.208;20.374;2023-05-06T14:10:26;4.72;;;3.33;;
60076;SDS011;45950;45.208;20.374;2023-05-06T14:12:52;4.82;;;3.63;;
60076;SDS011;45950;45.208;20.374;2023-05-06T14:15:19;4.60;;;3.03;;
60076;SDS011;45950;45.208;20.374;2023-05-06T14:17:46;4.28;;;3.40;;
60076;SDS011;45950;45.208;20.374;2023-05-06T14:20:12;4.50;;;3.35;;
60076;SDS011;45950;45.208;20.374;2023-05-06T14:22:40;6.35;;;3.80;;
60076;SDS011;45950;45.208;20.374;2023-05-06T14:25:08;5.43;;;3.65;;
60076;SDS011;45950;45.208;20.374;2023-05-06T14:27:35;4.57;;;3.72;;
60076;SDS011;45950;45.208;20.374;2023-05-06T14:30:02;3.40;;;3.03;;
60076;SDS011;45950;45.208;20.374;2023-05-06T14:32:29;4.35;;;3.00;;
60076;SDS011;45950;45.208;20.374;2023-05-06T14:34:56;4.97;;;3.28;;
60076;SDS011;45950;45.208;20.374;2023-05-06T14:37:22;4.15;;;3.30;;
60076;SDS011;45950;45.208;20.374;2023-05-06T14:39:49;4.45;;;3.30;;